createdAt,value
2017-09-08T00:00:24.868Z,69.50
2017-09-08T00:02:52.500Z,69.20
2017-09-08T00:05:20.093Z,69.10
2017-09-08T00:07:47.709Z,69.00
2017-09-08T00:10:15.344Z,69.20
2017-09-08T00:12:43.726Z,70.40
2017-09-08T00:15:12.101Z,70.60
2017-09-08T00:17:41.431Z,69.80
2017-09-08T00:20:09.030Z,69.80
2017-09-08T00:22:36.644Z,69.90
2017-09-08T00:25:04.247Z,70.10
2017-09-08T00:27:31.869Z,70.10
2017-09-08T00:29:59.468Z,70.10
2017-09-08T00:32:27.096Z,70.40
2017-09-08T00:37:28.634Z,70.60
2017-09-08T00:39:57.001Z,70.40
2017-09-08T00:42:25.428Z,70.30
2017-09-08T00:44:53.054Z,70.30
2017-09-08T00:47:21.416Z,70.20
2017-09-08T00:49:49.052Z,70.20
2017-09-08T00:52:16.968Z,70.80
2017-09-08T00:54:45.352Z,70.80
2017-09-08T00:57:12.948Z,70.80
2017-09-08T00:59:40.569Z,70.20
2017-09-08T01:02:08.950Z,69.90
2017-09-08T01:04:37.351Z,70.00
2017-09-08T01:07:04.981Z,70.00
2017-09-08T01:09:33.364Z,69.60
2017-09-08T01:12:01.723Z,70.00
2017-09-08T01:14:29.340Z,70.00
2017-09-08T01:16:56.937Z,70.80
2017-09-08T01:19:24.562Z,70.70
2017-09-08T01:21:52.166Z,70.50
2017-09-08T01:24:19.795Z,69.90
2017-09-08T01:26:47.417Z,69.50
2017-09-08T01:29:15.032Z,69.50
2017-09-08T01:31:42.644Z,69.30
2017-09-08T01:34:10.274Z,69.60
2017-09-08T01:36:37.869Z,69.10
2017-09-08T01:39:05.493Z,69.50
2017-09-08T01:41:33.104Z,69.50
2017-09-08T01:44:00.713Z,69.60
2017-09-08T01:46:28.352Z,69.90
2017-09-08T01:48:55.939Z,69.30
2017-09-08T01:51:23.559Z,69.60
2017-09-08T01:53:51.184Z,69.90
2017-09-08T01:56:18.831Z,69.90
2017-09-08T01:58:47.205Z,69.90
2017-09-08T02:01:14.827Z,70.00
2017-09-08T02:03:43.425Z,70.30
2017-09-08T02:06:11.036Z,70.50
2017-09-08T02:08:38.642Z,70.10
2017-09-08T02:11:06.272Z,70.00
2017-09-08T02:13:33.871Z,70.60
2017-09-08T02:16:01.495Z,70.70
2017-09-08T02:18:29.100Z,70.40
2017-09-08T02:20:56.735Z,70.50
2017-09-08T02:23:24.352Z,70.10
2017-09-08T02:25:52.755Z,70.20
2017-09-08T02:28:20.356Z,70.10
2017-09-08T02:30:47.961Z,70.00
2017-09-08T02:33:16.345Z,70.30
2017-09-08T02:35:43.958Z,70.20
2017-09-08T02:38:11.600Z,70.10
2017-09-08T02:40:39.883Z,70.10
2017-09-08T02:43:07.500Z,70.00
2017-09-08T02:45:35.127Z,70.10
2017-09-08T02:48:02.816Z,71.00
2017-09-08T02:50:30.450Z,71.50
2017-09-08T02:52:58.111Z,71.10
2017-09-08T02:55:25.714Z,71.10
2017-09-08T02:57:53.342Z,71.10
2017-09-08T03:00:21.726Z,72.10
2017-09-08T03:02:50.118Z,71.80
2017-09-08T03:05:18.475Z,71.90
2017-09-08T03:07:46.867Z,72.50
2017-09-08T03:10:15.232Z,72.70
2017-09-08T03:12:43.652Z,72.90
2017-09-08T03:15:11.248Z,72.80
2017-09-08T03:17:38.879Z,72.50
2017-09-08T03:20:06.481Z,72.00
2017-09-08T03:22:34.106Z,72.10
2017-09-08T03:25:01.719Z,72.50
2017-09-08T03:27:29.331Z,72.10
2017-09-08T03:29:56.966Z,72.20
2017-09-08T03:32:24.559Z,72.30
2017-09-08T03:34:52.197Z,72.80
2017-09-08T03:37:19.785Z,72.40
2017-09-08T03:39:47.611Z,72.20
2017-09-08T03:42:15.975Z,72.20
2017-09-08T03:44:44.354Z,72.00
2017-09-08T03:47:12.717Z,72.50
2017-09-08T03:49:40.344Z,72.40
2017-09-08T03:52:07.952Z,72.20
2017-09-08T03:54:36.345Z,72.30
2017-09-08T03:57:04.711Z,72.10
2017-09-08T03:59:33.116Z,72.80
2017-09-08T04:02:00.746Z,72.80
2017-09-08T04:04:29.136Z,72.90
2017-09-08T04:06:57.505Z,72.70
2017-09-08T04:09:25.900Z,72.70
2017-09-08T04:11:54.317Z,73.10
2017-09-08T04:14:21.938Z,73.10
2017-09-08T04:16:50.298Z,72.60
2017-09-08T04:19:18.709Z,72.50
2017-09-08T04:21:46.450Z,72.50
2017-09-08T04:24:14.816Z,72.50
2017-09-08T04:26:42.423Z,72.50
2017-09-08T04:29:10.024Z,72.30
2017-09-08T04:31:37.643Z,72.70
2017-09-08T04:34:05.242Z,72.60
2017-09-08T04:36:32.891Z,73.30
2017-09-08T04:39:00.506Z,72.80
2017-09-08T04:41:28.132Z,72.80
2017-09-08T04:43:55.747Z,73.10
2017-09-08T04:46:23.364Z,73.20
2017-09-08T04:48:50.972Z,73.00
2017-09-08T04:51:18.588Z,73.50
2017-09-08T04:53:46.183Z,72.70
2017-09-08T04:56:13.815Z,72.90
2017-09-08T04:58:42.182Z,72.50
2017-09-08T05:01:09.813Z,72.40
2017-09-08T05:03:37.750Z,72.50
2017-09-08T05:06:05.441Z,72.70
2017-09-08T05:08:33.035Z,72.70
2017-09-08T05:11:00.678Z,72.00
2017-09-08T05:13:28.290Z,72.10
2017-09-08T05:15:55.884Z,72.00
2017-09-08T05:18:23.509Z,71.40
2017-09-08T05:20:51.556Z,71.50
2017-09-08T05:23:19.940Z,73.00
2017-09-08T05:25:48.342Z,72.60
2017-09-08T05:28:17.474Z,72.60
2017-09-08T05:30:45.080Z,72.60
2017-09-08T05:33:13.460Z,71.40
2017-09-08T05:35:41.820Z,71.60
2017-09-08T05:38:12.396Z,72.10
2017-09-08T05:40:41.895Z,72.00
2017-09-08T05:43:12.284Z,71.60
2017-09-08T05:45:40.057Z,70.90
2017-09-08T05:48:09.692Z,71.00
2017-09-08T05:50:39.670Z,71.00
2017-09-08T05:53:10.335Z,71.70
2017-09-08T05:55:38.082Z,71.00
2017-09-08T05:58:06.478Z,70.30
2017-09-08T06:00:34.834Z,70.50
2017-09-08T06:03:04.998Z,70.30
2017-09-08T06:05:33.557Z,70.40
2017-09-08T06:08:01.931Z,70.00
2017-09-08T06:10:30.296Z,69.30
2017-09-08T06:12:57.944Z,69.20
2017-09-08T06:15:25.537Z,69.50
2017-09-08T06:17:53.905Z,69.60
2017-09-08T06:20:22.313Z,69.70
2017-09-08T06:25:24.606Z,68.90
2017-09-08T06:27:52.203Z,68.90
2017-09-08T06:30:19.839Z,69.10
2017-09-08T06:32:47.448Z,68.80
2017-09-08T06:35:15.066Z,69.70
2017-09-08T06:37:42.703Z,68.90
2017-09-08T06:40:11.177Z,69.30
2017-09-08T06:42:40.171Z,68.70
2017-09-08T06:45:10.677Z,69.30
2017-09-08T06:47:40.352Z,69.30
2017-09-08T06:50:10.321Z,69.30
2017-09-08T06:52:38.794Z,69.30
2017-09-08T06:55:07.181Z,68.70
2017-09-08T06:57:36.993Z,68.20
2017-09-08T07:00:04.948Z,68.10
2017-09-08T07:02:33.113Z,68.20
2017-09-08T07:05:03.820Z,68.60
2017-09-08T07:07:41.055Z,68.00
2017-09-08T07:10:12.724Z,68.60
2017-09-08T07:12:42.561Z,68.60
2017-09-08T07:15:11.423Z,68.80
2017-09-08T07:17:39.125Z,68.60
2017-09-08T07:20:06.761Z,68.40
2017-09-08T07:22:34.352Z,68.80
2017-09-08T07:25:02.000Z,68.80
2017-09-08T07:27:30.328Z,68.30
2017-09-08T07:29:59.503Z,66.90
2017-09-08T07:32:27.120Z,66.90
2017-09-08T07:34:54.730Z,66.80
2017-09-08T07:37:22.390Z,67.70
2017-09-08T07:39:50.001Z,67.50
2017-09-08T07:42:17.630Z,67.00
2017-09-08T07:44:46.005Z,67.60
2017-09-08T07:47:14.396Z,67.60
2017-09-08T07:49:42.008Z,67.30
2017-09-08T07:52:09.616Z,67.10
2017-09-08T07:54:37.982Z,67.40
2017-09-08T07:57:11.040Z,67.60
2017-09-08T07:59:38.644Z,67.40
2017-09-08T08:02:07.034Z,67.10
2017-09-08T08:04:35.383Z,68.40
2017-09-08T08:07:03.849Z,67.00
2017-09-08T08:09:31.442Z,66.90
2017-09-08T08:11:59.855Z,67.20
2017-09-08T08:14:27.452Z,67.20
2017-09-08T08:16:56.328Z,67.80
2017-09-08T08:19:24.026Z,67.60
2017-09-08T08:21:51.636Z,67.60
2017-09-08T08:24:19.232Z,66.60
2017-09-08T08:26:46.849Z,66.80
2017-09-08T08:29:14.458Z,67.70
2017-09-08T08:31:42.852Z,66.80
2017-09-08T08:34:11.224Z,67.80
2017-09-08T08:36:38.832Z,67.80
2017-09-08T08:39:06.511Z,67.20
2017-09-08T08:41:34.132Z,67.80
2017-09-08T08:44:02.550Z,66.70
2017-09-08T08:46:30.159Z,66.70
2017-09-08T08:48:58.537Z,67.50
2017-09-08T08:51:26.895Z,66.70
2017-09-08T08:53:54.517Z,66.70
2017-09-08T08:56:22.125Z,66.80
2017-09-08T08:58:49.747Z,67.00
2017-09-08T09:01:17.354Z,66.30
2017-09-08T09:03:45.545Z,66.30
2017-09-08T09:06:14.979Z,66.10
2017-09-08T09:08:42.611Z,66.10
2017-09-08T09:11:10.255Z,66.80
2017-09-08T09:13:39.430Z,67.00
2017-09-08T09:16:07.045Z,66.90
2017-09-08T09:18:34.654Z,66.20
2017-09-08T09:21:03.044Z,66.80
2017-09-08T09:23:30.636Z,66.20
2017-09-08T09:25:58.272Z,66.90
2017-09-08T09:28:26.638Z,67.60
2017-09-08T09:30:54.270Z,66.80
2017-09-08T09:33:21.911Z,65.90
2017-09-08T09:35:49.537Z,65.40
2017-09-08T09:38:17.899Z,65.80
2017-09-08T09:40:45.535Z,65.80
2017-09-08T09:43:13.128Z,65.70
2017-09-08T09:45:41.545Z,66.90
2017-09-08T09:48:09.168Z,66.80
2017-09-08T09:50:37.554Z,66.60
2017-09-08T09:53:05.932Z,67.00
2017-09-08T09:55:34.312Z,64.90
2017-09-08T09:58:02.665Z,65.90
2017-09-08T10:00:30.288Z,65.90
2017-09-08T10:02:59.101Z,65.80
2017-09-08T10:05:26.931Z,65.40
2017-09-08T10:07:54.537Z,66.10
2017-09-08T10:10:22.208Z,64.60
2017-09-08T10:12:52.536Z,64.40
2017-09-08T10:15:20.124Z,64.40
2017-09-08T10:17:48.510Z,65.00
2017-09-08T10:20:16.883Z,65.00
2017-09-08T10:22:45.288Z,64.90
2017-09-08T10:25:12.883Z,64.90
2017-09-08T10:27:40.509Z,64.70
2017-09-08T10:30:08.659Z,64.70
2017-09-08T10:32:37.052Z,64.10
2017-09-08T10:35:06.250Z,63.90
2017-09-08T10:37:33.863Z,63.70
2017-09-08T10:40:01.647Z,63.00
2017-09-08T10:42:30.036Z,63.00
2017-09-08T10:44:57.650Z,62.80
2017-09-08T10:47:25.274Z,61.70
2017-09-08T10:49:52.885Z,62.80
2017-09-08T10:52:20.556Z,61.30
2017-09-08T10:54:48.147Z,61.90
2017-09-08T10:57:16.564Z,62.00
2017-09-08T10:59:44.184Z,62.00
2017-09-08T11:02:12.576Z,61.90
2017-09-08T11:04:40.176Z,61.90
2017-09-08T11:07:07.786Z,62.20
2017-09-08T11:09:36.188Z,61.40
2017-09-08T11:12:03.798Z,61.40
2017-09-08T11:14:31.429Z,62.40
2017-09-08T11:16:59.030Z,62.20
2017-09-08T11:19:26.662Z,62.50
2017-09-08T11:21:54.258Z,60.80
2017-09-08T11:24:22.652Z,61.30
2017-09-08T11:26:50.280Z,61.20
2017-09-08T11:29:17.913Z,61.00
2017-09-08T11:31:45.524Z,61.10
2017-09-08T11:34:18.949Z,61.50
2017-09-08T11:36:52.213Z,61.20
2017-09-08T11:39:20.602Z,60.90
2017-09-08T11:41:49.281Z,60.60
2017-09-08T11:44:17.689Z,60.40
2017-09-08T11:46:45.285Z,60.30
2017-09-08T11:49:12.913Z,60.90
2017-09-08T11:51:40.505Z,61.20
2017-09-08T11:54:08.193Z,59.60
2017-09-08T11:56:35.796Z,59.50
2017-09-08T11:59:03.422Z,58.70
2017-09-08T12:01:31.793Z,59.50
2017-09-08T12:04:02.510Z,59.40
2017-09-08T12:06:30.120Z,58.70
2017-09-08T12:08:57.726Z,58.80
2017-09-08T12:11:25.352Z,58.20
2017-09-08T12:13:53.869Z,58.10
2017-09-08T12:16:21.567Z,57.70
2017-09-08T12:18:49.959Z,58.20
2017-09-08T12:21:18.349Z,58.40
2017-09-08T12:23:45.958Z,58.40
2017-09-08T12:26:13.580Z,58.60
2017-09-08T12:28:41.485Z,57.90
2017-09-08T12:31:09.105Z,58.50
2017-09-08T12:33:36.706Z,58.90
2017-09-08T12:36:05.556Z,58.00
2017-09-08T12:38:37.154Z,59.10
2017-09-08T12:41:06.610Z,58.70
2017-09-08T12:43:34.250Z,59.30
2017-09-08T12:46:02.646Z,58.80
2017-09-08T12:48:30.279Z,58.80
2017-09-08T12:50:57.910Z,60.00
2017-09-08T12:53:26.067Z,59.30
2017-09-08T12:55:53.713Z,60.00
2017-09-08T12:58:21.312Z,60.00
2017-09-08T13:00:48.924Z,60.60
2017-09-08T13:03:16.542Z,60.50
2017-09-08T13:05:44.136Z,60.10
2017-09-08T13:08:12.549Z,61.40
2017-09-08T13:10:40.136Z,61.40
2017-09-08T13:13:07.748Z,60.80
2017-09-08T13:15:35.340Z,61.20
2017-09-08T13:18:03.026Z,60.60
2017-09-08T13:20:30.624Z,61.50
2017-09-08T13:22:59.018Z,62.20
2017-09-08T13:25:26.612Z,62.00
2017-09-08T13:27:54.236Z,60.30
2017-09-08T13:30:21.833Z,60.60
2017-09-08T13:32:49.448Z,60.20
2017-09-08T13:35:17.803Z,60.10
2017-09-08T13:37:45.432Z,60.00
2017-09-08T13:40:13.019Z,61.00
2017-09-08T13:42:40.662Z,61.10
2017-09-08T13:45:08.258Z,62.60
2017-09-08T13:47:36.650Z,66.00
2017-09-08T13:50:05.015Z,65.60
2017-09-08T13:52:33.414Z,65.30
2017-09-08T13:55:01.795Z,66.00
2017-09-08T13:57:36.175Z,66.00
2017-09-08T14:00:05.109Z,67.70
2017-09-08T14:02:32.741Z,68.70
2017-09-08T14:05:00.343Z,68.80
2017-09-08T14:07:27.966Z,68.40
2017-09-08T14:09:56.362Z,70.40
2017-09-08T14:12:24.748Z,69.50
2017-09-08T14:14:52.352Z,69.50
2017-09-08T14:17:20.299Z,71.20
2017-09-08T14:19:48.192Z,72.20
2017-09-08T14:22:15.808Z,72.40
2017-09-08T14:24:43.429Z,71.90
2017-09-08T14:27:11.047Z,72.30
2017-09-08T14:29:38.637Z,74.20
2017-09-08T14:32:06.265Z,75.20
2017-09-08T14:34:33.856Z,74.30
2017-09-08T14:37:01.500Z,75.00
2017-09-08T14:39:29.128Z,74.70
2017-09-08T14:41:56.746Z,74.10
2017-09-08T14:44:24.363Z,75.20
2017-09-08T14:46:51.965Z,76.20
2017-09-08T14:49:19.589Z,75.60
2017-09-08T14:51:47.203Z,76.80
2017-09-08T14:54:14.823Z,77.10
2017-09-08T14:56:42.433Z,76.30
2017-09-08T14:59:10.052Z,76.10
2017-09-08T15:01:37.654Z,76.20
2017-09-08T15:04:06.044Z,76.10
2017-09-08T15:06:34.499Z,75.90
2017-09-08T15:09:02.877Z,77.70
2017-09-08T15:11:30.504Z,77.60
2017-09-08T15:13:58.097Z,76.70
2017-09-08T15:16:25.730Z,76.70
2017-09-08T15:18:53.325Z,77.80
2017-09-08T15:21:20.941Z,77.20
2017-09-08T15:23:48.546Z,78.10
2017-09-08T15:26:16.168Z,78.30
2017-09-08T15:28:43.790Z,78.00
2017-09-08T15:31:11.440Z,76.90
2017-09-08T15:33:39.033Z,78.20
2017-09-08T15:36:06.880Z,76.80
2017-09-08T15:38:34.477Z,76.10
2017-09-08T15:41:02.109Z,78.00
2017-09-08T15:43:29.766Z,77.90
2017-09-08T15:45:58.187Z,78.80
2017-09-08T15:48:25.772Z,78.70
2017-09-08T15:50:53.420Z,78.00
2017-09-08T15:53:21.003Z,78.50
2017-09-08T15:55:49.403Z,78.80
2017-09-08T15:58:17.817Z,78.30
2017-09-08T16:00:46.693Z,78.10
2017-09-08T16:03:14.301Z,78.10
2017-09-08T16:05:41.973Z,78.20
2017-09-08T16:08:09.592Z,78.10
2017-09-08T16:10:37.216Z,78.10
2017-09-08T16:13:05.617Z,78.10
2017-09-08T16:15:33.214Z,78.10
2017-09-08T16:18:00.841Z,77.90
2017-09-08T16:20:28.453Z,77.60
2017-09-08T16:22:56.082Z,78.20
2017-09-08T16:25:23.717Z,78.20
2017-09-08T16:27:52.098Z,79.00
2017-09-08T16:30:19.692Z,79.80
2017-09-08T16:32:47.313Z,78.70
2017-09-08T16:35:15.677Z,78.80
2017-09-08T16:37:44.065Z,79.30
2017-09-08T16:40:12.420Z,78.70
2017-09-08T16:42:40.064Z,78.60
2017-09-08T16:45:07.692Z,78.70
2017-09-08T16:47:35.299Z,79.40
2017-09-08T16:50:02.918Z,79.80
2017-09-08T16:52:30.520Z,79.50
2017-09-08T16:54:58.676Z,78.70
2017-09-08T16:57:26.288Z,78.90
2017-09-08T16:59:53.918Z,79.10
2017-09-08T17:02:21.534Z,79.50
2017-09-08T17:04:49.162Z,79.20
2017-09-08T17:07:17.530Z,79.60
2017-09-08T17:09:45.923Z,79.10
2017-09-08T17:12:13.544Z,79.10
2017-09-08T17:14:41.189Z,79.20
2017-09-08T17:17:08.801Z,78.50
2017-09-08T17:19:37.236Z,80.00
2017-09-08T17:22:04.836Z,79.90
2017-09-08T17:24:33.280Z,78.90
2017-09-08T17:27:00.885Z,79.60
2017-09-08T17:29:28.501Z,80.60
2017-09-08T17:31:56.121Z,79.90
2017-09-08T17:34:23.754Z,80.40
2017-09-08T17:36:51.377Z,79.20
2017-09-08T17:39:18.977Z,79.60
2017-09-08T17:41:46.609Z,80.50
2017-09-08T17:44:14.210Z,80.90
2017-09-08T17:46:42.614Z,80.60
2017-09-08T17:49:10.221Z,80.60
2017-09-08T17:51:37.840Z,81.30
2017-09-08T17:54:05.450Z,80.70
2017-09-08T17:56:33.524Z,80.10
2017-09-08T17:59:01.142Z,79.30
2017-09-08T18:01:29.612Z,80.30
2017-09-08T18:03:57.213Z,80.30
2017-09-08T18:06:24.847Z,79.70
2017-09-08T18:08:52.509Z,79.50
2017-09-08T18:11:20.136Z,80.40
2017-09-08T18:13:48.495Z,79.80
2017-09-08T18:16:16.117Z,79.90
2017-09-08T18:18:43.717Z,79.90
2017-09-08T18:21:11.350Z,81.10
2017-09-08T18:23:39.467Z,82.30
2017-09-08T18:26:07.863Z,81.80
2017-09-08T18:28:36.225Z,83.10
2017-09-08T18:31:04.725Z,82.80
2017-09-08T18:33:32.352Z,82.60
2017-09-08T18:35:59.968Z,82.50
2017-09-08T18:38:27.592Z,82.80
2017-09-08T18:40:56.069Z,82.30
2017-09-08T18:43:24.444Z,81.00
2017-09-08T18:45:52.817Z,80.60
2017-09-08T18:48:21.221Z,81.00
2017-09-08T18:50:48.866Z,81.00
2017-09-08T18:53:17.266Z,81.50
2017-09-08T18:55:44.872Z,81.50
2017-09-08T18:58:12.495Z,81.20
2017-09-08T19:00:40.106Z,80.70
2017-09-08T19:03:08.492Z,79.50
2017-09-08T19:05:36.097Z,79.00
2017-09-08T19:08:03.729Z,79.30
2017-09-08T19:10:32.103Z,80.80
2017-09-08T19:13:00.498Z,81.60
2017-09-08T19:15:28.861Z,81.30
2017-09-08T19:17:57.248Z,81.30
2017-09-08T19:20:25.630Z,80.00
2017-09-08T19:22:54.012Z,79.30
2017-09-08T19:25:22.382Z,79.30
2017-09-08T19:27:50.741Z,79.30
2017-09-08T19:30:18.367Z,79.20
2017-09-08T19:32:45.980Z,78.90
2017-09-08T19:35:14.377Z,79.00
2017-09-08T19:37:42.004Z,79.00
2017-09-08T19:40:09.651Z,78.20
2017-09-08T19:42:37.240Z,79.20
2017-09-08T19:45:05.625Z,78.30
2017-09-08T19:47:33.989Z,78.70
2017-09-08T19:50:01.605Z,78.60
2017-09-08T19:52:30.230Z,78.30
2017-09-08T19:54:58.621Z,76.80
2017-09-08T19:57:27.001Z,76.30
2017-09-08T19:59:55.385Z,76.80
2017-09-08T20:02:22.992Z,76.80
2017-09-08T20:04:50.633Z,76.00
2017-09-08T20:07:18.235Z,75.90
2017-09-08T20:09:45.859Z,75.20
2017-09-08T20:12:13.448Z,75.40
2017-09-08T20:14:41.073Z,75.20
2017-09-08T20:17:08.677Z,74.30
2017-09-08T20:19:36.280Z,76.00
2017-09-08T20:22:04.687Z,74.60
2017-09-08T20:24:32.306Z,74.70
2017-09-08T20:27:00.705Z,74.30
2017-09-08T20:29:28.301Z,74.30
2017-09-08T20:31:55.933Z,74.10
2017-09-08T20:34:23.529Z,74.50
2017-09-08T20:36:51.145Z,74.40
2017-09-08T20:39:18.740Z,74.10
2017-09-08T20:41:46.357Z,73.30
2017-09-08T20:44:14.723Z,73.50
2017-09-08T20:46:43.109Z,72.60
2017-09-08T20:49:11.480Z,73.00
2017-09-08T20:51:39.877Z,73.40
2017-09-08T20:54:08.361Z,72.80
2017-09-08T20:56:36.753Z,73.30
2017-09-08T20:59:04.354Z,73.30
2017-09-08T21:01:31.966Z,73.10
2017-09-08T21:03:59.587Z,73.80
2017-09-08T21:06:27.218Z,72.10
2017-09-08T21:08:54.831Z,72.70
2017-09-08T21:11:22.475Z,70.90
2017-09-08T21:13:50.056Z,70.60
2017-09-08T21:16:17.688Z,71.70
2017-09-08T21:18:45.308Z,71.40
2017-09-08T21:21:12.918Z,71.10
2017-09-08T21:23:40.532Z,70.80
2017-09-08T21:26:08.129Z,70.40
2017-09-08T21:28:35.743Z,70.50
2017-09-08T21:31:03.331Z,72.20
2017-09-08T21:33:30.948Z,71.10
2017-09-08T21:35:58.569Z,70.20
2017-09-08T21:38:26.180Z,70.00
2017-09-08T21:40:53.785Z,69.70
2017-09-08T21:43:21.413Z,70.60
2017-09-08T21:45:49.008Z,71.10
2017-09-08T21:48:16.624Z,70.30
2017-09-08T21:50:44.235Z,71.10
2017-09-08T21:53:11.861Z,69.60
2017-09-08T21:55:39.448Z,69.30
2017-09-08T21:58:07.069Z,70.30
2017-09-08T22:00:34.698Z,69.60
2017-09-08T22:03:03.884Z,70.80
2017-09-08T22:05:32.261Z,70.40
2017-09-08T22:07:59.872Z,70.40
2017-09-08T22:10:27.482Z,70.70
2017-09-08T22:12:55.077Z,70.40
2017-09-08T22:15:22.700Z,70.80
2017-09-08T22:17:50.292Z,70.80
2017-09-08T22:20:19.156Z,70.90
2017-09-08T22:22:46.762Z,70.90
2017-09-08T22:25:14.364Z,70.40
2017-09-08T22:27:41.977Z,70.40
2017-09-08T22:30:09.626Z,70.90
2017-09-08T22:32:37.996Z,71.20
2017-09-08T22:35:05.677Z,71.20
2017-09-08T22:37:34.068Z,71.60
2017-09-08T22:40:01.705Z,71.60
2017-09-08T22:42:30.072Z,71.70
2017-09-08T22:44:57.697Z,71.70
2017-09-08T22:47:25.305Z,71.90
2017-09-08T22:49:53.000Z,71.80
2017-09-08T22:52:20.605Z,71.80
2017-09-08T22:54:48.231Z,72.00
2017-09-08T22:57:15.820Z,72.50
2017-09-08T22:59:43.439Z,72.30
2017-09-08T23:02:11.042Z,72.60
2017-09-08T23:04:38.647Z,72.80
2017-09-08T23:07:06.268Z,73.00
2017-09-08T23:09:33.868Z,73.00
2017-09-08T23:12:01.499Z,73.00
2017-09-08T23:14:29.100Z,72.80
2017-09-08T23:16:56.719Z,73.20
2017-09-08T23:19:24.332Z,72.80
2017-09-08T23:21:51.958Z,73.00
2017-09-08T23:24:20.357Z,73.50
2017-09-08T23:26:47.980Z,73.40
2017-09-08T23:29:16.355Z,73.30
2017-09-08T23:31:43.993Z,73.30
2017-09-08T23:34:11.593Z,73.10
2017-09-08T23:36:39.990Z,74.60
2017-09-08T23:39:08.371Z,74.70
2017-09-08T23:41:35.984Z,74.70
2017-09-08T23:44:03.645Z,74.90
2017-09-08T23:46:31.276Z,76.50
2017-09-08T23:48:58.877Z,77.90
2017-09-08T23:51:26.504Z,78.70
2017-09-08T23:53:54.131Z,79.80
2017-09-08T23:56:22.524Z,81.20
2017-09-08T23:58:50.111Z,81.10
